Time;durP1;ratioP1;P1;durP2;ratioP2;P2;SDS_P1;SDS_P2;PMS_P1;PMS_P2;Temp;Humidity;BMP_temperature;BMP_pressure;BME280_temperature;BME280_humidity;BME280_pressure;Samples;Min_cycle;Max_cycle;Signal;HPM_P1;HPM_P2
2021/07/27 00:00:49;;;;;;;4.05;2.60;;;22.40;75.30;;;;;;5029917;28;20033;-74
2021/07/27 00:03:15;;;;;;;3.20;2.22;;;22.40;75.20;;;;;;5031260;28;20105;-75
2021/07/27 00:05:41;;;;;;;3.67;2.53;;;22.40;75.30;;;;;;5034658;28;20096;-75
2021/07/27 00:08:09;;;;;;;3.78;2.47;;;22.30;75.30;;;;;;5034819;28;20441;-75
2021/07/27 00:10:37;;;;;;;4.20;3.00;;;22.30;75.50;;;;;;5034830;28;20033;-74
2021/07/27 00:13:03;;;;;;;2.60;2.40;;;22.30;75.60;;;;;;5034786;28;20113;-75
2021/07/27 00:15:29;;;;;;;3.33;2.60;;;22.30;75.50;;;;;;5030069;28;20033;-74
2021/07/27 00:17:55;;;;;;;3.35;2.08;;;22.30;75.50;;;;;;5016542;28;20026;-75
2021/07/27 00:20:21;;;;;;;5.32;2.65;;;22.20;75.50;;;;;;5034839;28;20136;-74
2021/07/27 00:22:47;;;;;;;6.13;3.05;;;22.20;75.50;;;;;;5033415;28;20164;-75
2021/07/27 00:25:17;;;;;;;3.85;2.20;;;22.10;75.40;;;;;;5034131;28;20471;-75
2021/07/27 00:27:43;;;;;;;2.50;2.30;;;22.10;75.50;;;;;;5033237;28;20040;-74
2021/07/27 00:30:12;;;;;;;3.45;2.42;;;22.10;75.70;;;;;;5034404;28;20514;-76
2021/07/27 00:32:42;;;;;;;6.97;2.58;;;22.00;75.80;;;;;;5033196;28;20025;-74
2021/07/27 00:35:10;;;;;;;3.92;2.85;;;22.00;75.70;;;;;;5034410;28;20026;-75
2021/07/27 00:37:41;;;;;;;3.17;2.30;;;22.00;75.90;;;;;;5034495;28;20021;-75
2021/07/27 00:40:07;;;;;;;6.65;2.47;;;22.00;76.10;;;;;;5034487;28;20033;-75
2021/07/27 00:42:42;;;;;;;7.80;2.30;;;21.90;76.00;;;;;;5034443;28;20039;-75
2021/07/27 00:45:08;;;;;;;6.50;2.90;;;21.90;75.70;;;;;;5033290;28;20530;-74
2021/07/27 00:47:34;;;;;;;3.05;2.58;;;21.90;76.10;;;;;;5039716;28;20414;-75
2021/07/27 00:50:00;;;;;;;4.30;2.70;;;21.90;76.20;;;;;;5047387;28;20029;-76
2021/07/27 00:52:26;;;;;;;8.18;2.47;;;21.90;76.10;;;;;;5033135;28;20029;-74
2021/07/27 00:54:51;;;;;;;21.77;3.13;;;21.80;76.00;;;;;;5032844;28;20036;-75
2021/07/27 00:57:17;;;;;;;4.57;2.80;;;21.80;76.10;;;;;;5032902;28;20586;-74
2021/07/27 00:59:43;;;;;;;3.35;2.13;;;21.80;76.40;;;;;;5034053;28;20493;-76
2021/07/27 01:02:09;;;;;;;10.20;2.75;;;21.80;76.50;;;;;;5033655;28;20044;-76
2021/07/27 01:04:35;;;;;;;3.55;3.00;;;21.80;76.50;;;;;;5033639;28;20037;-75
2021/07/27 01:07:01;;;;;;;3.15;2.65;;;21.70;76.60;;;;;;5033690;28;20026;-76
2021/07/27 01:09:26;;;;;;;5.45;3.17;;;21.70;76.50;;;;;;5033565;28;20033;-76
2021/07/27 01:11:57;;;;;;;5.80;3.13;;;21.70;76.40;;;;;;5033777;28;20104;-75
2021/07/27 01:14:23;;;;;;;3.60;2.72;;;21.70;76.40;;;;;;5033422;28;20075;-74
2021/07/27 01:16:49;;;;;;;4.18;2.70;;;21.60;76.30;;;;;;5033584;28;20438;-74
2021/07/27 01:43:30;;;;;;;5.30;2.92;;;21.40;76.50;;;;;;5031844;28;20056;-74
2021/07/27 01:45:56;;;;;;;7.03;2.67;;;21.40;76.60;;;;;;5041462;28;20028;-75
2021/07/27 01:48:29;;;;;;;3.33;2.58;;;21.40;76.70;;;;;;5052913;28;20029;-75
2021/07/27 01:50:58;;;;;;;4.55;2.58;;;21.30;76.30;;;;;;5029414;28;20036;-75
2021/07/27 01:53:34;;;;;;;3.00;2.55;;;21.30;76.60;;;;;;5032651;28;20045;-76
2021/07/27 01:56:00;;;;;;;3.67;2.90;;;21.30;76.30;;;;;;5031709;28;20025;-75
2021/07/27 01:58:26;;;;;;;3.75;2.58;;;21.20;76.60;;;;;;5033215;28;20184;-75
2021/07/27 02:00:52;;;;;;;4.10;2.97;;;21.20;76.70;;;;;;5031287;28;20449;-76
2021/07/27 02:03:18;;;;;;;6.28;3.08;;;21.20;76.80;;;;;;5032467;28;20025;-75
2021/07/27 02:05:44;;;;;;;4.18;3.03;;;21.20;76.80;;;;;;5032613;28;20084;-74
2021/07/27 02:08:11;;;;;;;6.65;3.53;;;21.20;76.90;;;;;;5032901;28;20034;-74
2021/07/27 02:10:38;;;;;;;10.05;3.65;;;21.20;76.90;;;;;;5032327;28;20116;-75
2021/07/27 02:13:14;;;;;;;5.90;3.72;;;21.10;76.80;;;;;;5032664;28;20033;-75
2021/07/27 02:15:42;;;;;;;3.97;2.90;;;21.10;76.70;;;;;;5032401;28;20375;-74
2021/07/27 02:18:08;;;;;;;4.43;3.22;;;21.10;76.80;;;;;;5032550;28;20479;-75
2021/07/27 02:20:35;;;;;;;3.72;3.13;;;21.00;76.90;;;;;;5032151;28;20029;-75
2021/07/27 02:23:05;;;;;;;3.20;2.90;;;21.00;77.10;;;;;;5032151;28;20537;-75
2021/07/27 02:25:32;;;;;;;3.80;3.25;;;21.00;77.00;;;;;;5032560;28;20030;-75
2021/07/27 02:27:58;;;;;;;6.07;3.17;;;21.00;76.90;;;;;;5031714;28;20029;-75
2021/07/27 02:30:30;;;;;;;3.05;2.65;;;20.90;76.80;;;;;;5031411;28;20056;-75
2021/07/27 02:32:56;;;;;;;3.63;2.65;;;20.90;76.90;;;;;;5031420;28;20493;-75
2021/07/27 02:35:23;;;;;;;4.30;3.03;;;20.90;77.00;;;;;;5030237;28;20116;-74
2021/07/27 02:37:48;;;;;;;3.83;2.72;;;20.90;77.10;;;;;;5029772;28;20430;-75
2021/07/27 02:40:14;;;;;;;5.85;3.08;;;20.90;77.20;;;;;;5031024;28;20079;-75
2021/07/27 02:42:40;;;;;;;4.03;2.92;;;20.90;77.20;;;;;;5031239;28;20026;-75
2021/07/27 02:45:06;;;;;;;4.50;2.40;;;20.90;77.20;;;;;;5031113;28;20086;-75
2021/07/27 02:47:33;;;;;;;7.07;3.60;;;20.90;77.30;;;;;;5034351;28;20017;-75
2021/07/27 02:49:58;;;;;;;6.72;2.97;;;20.90;77.40;;;;;;5019070;28;20087;-74
2021/07/27 02:52:24;;;;;;;5.95;3.00;;;20.80;77.50;;;;;;5031115;28;20105;-75
2021/07/27 02:54:50;;;;;;;4.20;3.00;;;20.90;77.70;;;;;;5029613;28;20036;-75
2021/07/27 02:57:16;;;;;;;4.82;3.15;;;20.90;77.80;;;;;;5031213;28;20072;-74
2021/07/27 02:59:41;;;;;;;5.68;3.70;;;20.90;77.80;;;;;;5030456;28;20048;-75
2021/07/27 03:02:07;;;;;;;7.72;3.30;;;20.90;77.60;;;;;;5031128;28;20025;-75
2021/07/27 03:04:33;;;;;;;4.35;2.95;;;20.90;77.50;;;;;;5031160;28;20025;-76
2021/07/27 03:06:59;;;;;;;3.67;3.08;;;20.90;77.60;;;;;;5031511;28;20116;-75
2021/07/27 03:09:28;;;;;;;5.43;3.15;;;20.90;77.60;;;;;;5029924;28;20491;-75
2021/07/27 03:11:54;;;;;;;5.47;3.67;;;20.80;77.50;;;;;;5031532;28;20402;-76
2021/07/27 03:14:20;;;;;;;5.88;3.67;;;20.80;77.50;;;;;;5031569;28;20021;-76
2021/07/27 03:16:46;;;;;;;6.60;3.75;;;20.80;77.50;;;;;;5031440;28;20079;-76
2021/07/27 03:19:12;;;;;;;5.22;3.15;;;20.80;77.50;;;;;;5031065;28;20436;-75
2021/07/27 03:21:38;;;;;;;3.53;2.80;;;20.80;77.50;;;;;;5031466;28;20064;-76
2021/07/27 03:24:04;;;;;;;4.20;2.95;;;20.80;77.50;;;;;;5030890;28;20475;-75
2021/07/27 03:26:29;;;;;;;6.35;3.72;;;20.80;77.50;;;;;;5031369;28;20033;-75
2021/07/27 03:28:55;;;;;;;4.88;4.25;;;20.70;77.50;;;;;;5030970;28;20064;-74
2021/07/27 03:31:21;;;;;;;6.38;3.65;;;20.70;77.20;;;;;;4987166;28;1251857;-74
2021/07/27 03:33:47;;;;;;;5.95;3.97;;;20.70;77.40;;;;;;5031681;28;20101;-74
2021/07/27 03:36:13;;;;;;;8.00;4.07;;;20.70;77.50;;;;;;5031951;28;20444;-76
2021/07/27 03:38:40;;;;;;;7.18;3.50;;;20.70;77.60;;;;;;5031130;28;20383;-74
2021/07/27 03:41:11;;;;;;;6.32;3.70;;;20.60;77.60;;;;;;5031574;28;20057;-75
2021/07/27 03:43:38;;;;;;;19.17;4.38;;;20.70;77.70;;;;;;5031618;28;20040;-75
2021/07/27 03:46:05;;;;;;;6.63;3.95;;;20.70;77.90;;;;;;5031769;28;20021;-75
2021/07/27 03:48:31;;;;;;;8.98;3.97;;;20.70;78.00;;;;;;5031913;28;20487;-74
2021/07/27 03:50:57;;;;;;;3.80;3.03;;;20.70;78.30;;;;;;5031240;28;20040;-74
2021/07/27 03:53:26;;;;;;;4.25;3.22;;;20.70;78.40;;;;;;5031950;28;20025;-76
2021/07/27 03:55:52;;;;;;;4.35;3.17;;;20.70;78.40;;;;;;5031449;28;20036;-75
2021/07/27 03:58:19;;;;;;;4.85;3.20;;;20.80;78.70;;;;;;5030579;28;20018;-75
2021/07/27 04:00:45;;;;;;;5.82;3.50;;;20.80;78.80;;;;;;5030070;28;20364;-75
2021/07/27 04:03:14;;;;;;;6.82;3.47;;;20.90;79.00;;;;;;5031827;28;20040;-75
2021/07/27 04:05:40;;;;;;;6.03;4.65;;;20.90;78.60;;;;;;5031574;28;20022;-75
2021/07/27 04:08:06;;;;;;;8.90;4.00;;;20.90;78.10;;;;;;5030043;28;20021;-74
2021/07/27 04:10:33;;;;;;;5.40;4.07;;;20.90;78.40;;;;;;5031093;28;20038;-74
2021/07/27 04:12:59;;;;;;;7.43;3.88;;;20.90;78.20;;;;;;5031571;28;20040;-75
2021/07/27 04:15:24;;;;;;;6.63;4.10;;;20.90;78.30;;;;;;5031381;28;20104;-75
2021/07/27 04:17:50;;;;;;;5.15;4.03;;;21.00;78.50;;;;;;5031216;28;20049;-74
2021/07/27 04:20:16;;;;;;;4.63;4.00;;;20.90;78.30;;;;;;5031479;28;20037;-75
2021/07/27 04:22:42;;;;;;;5.75;3.90;;;21.00;78.10;;;;;;5031529;28;20121;-76
2021/07/27 04:25:08;;;;;;;5.82;3.50;;;21.00;78.10;;;;;;5031277;28;20111;-76
2021/07/27 04:27:34;;;;;;;5.60;3.80;;;21.00;78.40;;;;;;5029897;28;20116;-75
2021/07/27 04:29:59;;;;;;;4.68;3.78;;;21.10;78.60;;;;;;5031000;28;20136;-75
2021/07/27 04:32:25;;;;;;;7.20;4.18;;;21.10;78.80;;;;;;5030076;28;20036;-75
2021/07/27 04:34:51;;;;;;;13.77;4.97;;;21.10;78.80;;;;;;5031349;28;20025;-74
2021/07/27 04:37:20;;;;;;;8.18;4.05;;;21.20;78.60;;;;;;5031273;28;20037;-75
2021/07/27 04:39:46;;;;;;;7.47;4.47;;;21.20;79.20;;;;;;5031485;28;20426;-75
2021/07/27 04:42:13;;;;;;;6.50;3.83;;;21.30;79.80;;;;;;5031248;28;20029;-75
2021/07/27 04:44:39;;;;;;;6.35;3.28;;;21.40;79.90;;;;;;5030032;28;20033;-74
2021/07/27 04:47:05;;;;;;;6.60;3.90;;;21.50;79.90;;;;;;5031370;28;20032;-74
2021/07/27 04:49:31;;;;;;;4.53;3.72;;;21.60;80.00;;;;;;5031358;28;20104;-75
2021/07/27 04:51:58;;;;;;;5.28;3.60;;;21.80;80.10;;;;;;5034265;28;20116;-75
2021/07/27 04:54:41;;;;;;;4.40;3.25;;;21.90;79.70;;;;;;5032508;28;20017;-74
2021/07/27 04:57:10;;;;;;;6.57;4.18;;;22.00;79.60;;;;;;5034121;28;20052;-74
2021/07/27 04:59:36;;;;;;;7.53;3.83;;;22.00;79.20;;;;;;5033803;28;20091;-74
2021/07/27 05:02:01;;;;;;;4.57;4.10;;;22.10;79.00;;;;;;5033661;28;20037;-74
2021/07/27 05:04:29;;;;;;;6.45;3.92;;;22.20;78.80;;;;;;5033418;28;20383;-75
2021/07/27 05:06:55;;;;;;;5.75;3.88;;;22.20;78.40;;;;;;5033159;28;20426;-74
2021/07/27 05:09:21;;;;;;;5.65;3.60;;;22.30;78.20;;;;;;5034514;28;20041;-75
2021/07/27 05:11:46;;;;;;;7.07;3.38;;;22.40;78.20;;;;;;5034553;28;20017;-75
2021/07/27 05:14:12;;;;;;;5.15;3.55;;;22.40;78.40;;;;;;5034526;28;20036;-74
2021/07/27 05:16:38;;;;;;;4.28;3.80;;;22.50;78.30;;;;;;5034448;28;20022;-76
2021/07/27 05:19:09;;;;;;;3.97;3.58;;;22.60;78.20;;;;;;5034498;28;20463;-76
2021/07/27 05:21:35;;;;;;;9.23;3.90;;;22.60;77.60;;;;;;5034420;28;20022;-74
2021/07/27 05:24:02;;;;;;;9.82;6.22;;;22.70;77.20;;;;;;5034160;28;20459;-75
2021/07/27 05:26:28;;;;;;;6.28;4.05;;;22.70;76.40;;;;;;5033957;28;20120;-76
2021/07/27 05:28:53;;;;;;;7.60;4.07;;;22.70;76.30;;;;;;5034004;28;20037;-75
2021/07/27 05:31:19;;;;;;;5.40;3.75;;;22.70;76.00;;;;;;5032536;28;20198;-76
2021/07/27 05:33:45;;;;;;;5.68;3.85;;;22.80;75.50;;;;;;5033890;28;20026;-75
2021/07/27 05:36:10;;;;;;;6.03;4.75;;;22.80;74.40;;;;;;5033840;28;20048;-76
2021/07/27 05:38:36;;;;;;;9.65;5.57;;;22.80;74.50;;;;;;5033879;28;20021;-76
2021/07/27 05:41:02;;;;;;;12.18;6.55;;;22.80;74.10;;;;;;5033862;28;20029;-75
2021/07/27 05:43:28;;;;;;;9.32;6.18;;;22.80;73.70;;;;;;5033934;28;20087;-75
2021/07/27 05:45:53;;;;;;;6.32;5.53;;;22.80;73.70;;;;;;5032420;28;20474;-73
2021/07/27 05:48:19;;;;;;;13.68;8.85;;;22.80;74.30;;;;;;5033819;28;20030;-75
2021/07/27 05:50:45;;;;;;;10.48;6.53;;;22.80;75.20;;;;;;5032182;28;20025;-76
2021/07/27 05:53:10;;;;;;;12.18;8.40;;;22.90;75.10;;;;;;5033633;28;20033;-74
2021/07/27 05:55:36;;;;;;;13.00;8.43;;;23.00;75.20;;;;;;5033599;28;20029;-74
2021/07/27 05:58:02;;;;;;;10.65;8.48;;;23.10;75.50;;;;;;5023720;28;20482;-76
2021/07/27 06:00:27;;;;;;;14.18;9.05;;;23.20;75.70;;;;;;5013652;28;20383;-74
2021/07/27 06:02:53;;;;;;;19.83;10.30;;;23.20;75.60;;;;;;5012886;28;20056;-75
2021/07/27 06:05:19;;;;;;;18.98;12.40;;;23.30;74.30;;;;;;5013686;28;20464;-75
2021/07/27 06:07:45;;;;;;;21.83;14.68;;;23.40;73.80;;;;;;5028680;28;20030;-75
2021/07/27 06:10:11;;;;;;;62.60;32.17;;;23.50;73.90;;;;;;5013536;28;20431;-75
2021/07/27 06:12:37;;;;;;;57.47;29.67;;;23.60;72.60;;;;;;5013510;28;20159;-75
2021/07/27 06:15:05;;;;;;;58.70;32.90;;;23.60;72.50;;;;;;5013608;28;20408;-75
2021/07/27 06:17:31;;;;;;;55.78;30.83;;;23.70;71.90;;;;;;5013456;28;20029;-73
2021/07/27 06:19:57;;;;;;;53.80;30.83;;;23.70;70.80;;;;;;5013566;28;20033;-76
2021/07/27 06:22:22;;;;;;;50.17;28.30;;;23.70;71.00;;;;;;5013413;28;20026;-76
2021/07/27 06:24:48;;;;;;;60.53;32.90;;;23.70;71.60;;;;;;5013491;28;20105;-75
2021/07/27 06:27:14;;;;;;;66.25;34.42;;;23.70;71.60;;;;;;5019305;28;20025;-75
2021/07/27 06:29:40;;;;;;;60.90;33.20;;;23.70;71.50;;;;;;5032940;28;20061;-75
2021/07/27 06:32:06;;;;;;;60.53;33.38;;;23.80;72.00;;;;;;5033067;28;20435;-75
2021/07/27 06:34:32;;;;;;;46.25;30.58;;;23.80;72.60;;;;;;5032972;28;20104;-76
2021/07/27 06:36:57;;;;;;;338.10;164.40;;;24.00;72.70;;;;;;5032923;28;20101;-75
2021/07/27 06:39:23;;;;;;;141.82;73.90;;;24.10;72.20;;;;;;5032820;28;20025;-75
2021/07/27 06:41:54;;;;;;;59.67;35.08;;;24.20;72.10;;;;;;5032885;28;20038;-75
2021/07/27 06:44:20;;;;;;;38.30;23.90;;;24.30;72.60;;;;;;5032745;28;20029;-75
2021/07/27 06:46:45;;;;;;;19.55;14.13;;;24.50;72.00;;;;;;5032588;28;20021;-75
2021/07/27 06:49:12;;;;;;;10.88;8.23;;;24.60;70.70;;;;;;5032715;28;20088;-75
2021/07/27 06:51:37;;;;;;;37.67;14.05;;;24.70;70.70;;;;;;5032642;28;20032;-75
2021/07/27 06:54:03;;;;;;;9.10;5.25;;;24.80;69.00;;;;;;5032621;28;20021;-76
2021/07/27 06:56:29;;;;;;;6.95;5.20;;;24.90;68.60;;;;;;5031148;28;20029;-75
2021/07/27 06:58:54;;;;;;;7.10;4.75;;;25.00;68.10;;;;;;5015569;28;20045;-75
2021/07/27 07:01:20;;;;;;;9.15;5.63;;;25.10;68.00;;;;;;5012808;28;20383;-75
2021/07/27 07:03:46;;;;;;;7.68;6.03;;;25.10;67.70;;;;;;5027859;28;20384;-75
2021/07/27 07:06:13;;;;;;;6.50;5.30;;;25.20;67.30;;;;;;5012593;28;20034;-75
2021/07/27 07:08:39;;;;;;;12.00;7.38;;;25.20;67.60;;;;;;5012539;28;20026;-76
2021/07/27 07:11:06;;;;;;;14.65;9.82;;;25.30;67.10;;;;;;5012510;28;20022;-75
2021/07/27 07:13:32;;;;;;;16.40;12.18;;;25.40;65.60;;;;;;5012400;28;20475;-75
2021/07/27 07:15:58;;;;;;;18.63;13.90;;;25.50;65.10;;;;;;5012286;28;20024;-75
2021/07/27 07:18:24;;;;;;;16.75;12.23;;;25.50;66.00;;;;;;5012481;28;20387;-75
2021/07/27 07:20:51;;;;;;;16.85;11.77;;;25.50;66.40;;;;;;5011141;28;20026;-74
2021/07/27 07:23:18;;;;;;;18.23;12.00;;;25.60;65.70;;;;;;5011136;28;20048;-75
2021/07/27 07:25:45;;;;;;;17.42;12.05;;;25.70;66.30;;;;;;5012254;28;20364;-74
2021/07/27 07:28:12;;;;;;;16.05;11.27;;;25.70;66.20;;;;;;5012335;28;20029;-76
2021/07/27 07:30:38;;;;;;;20.98;14.60;;;25.80;65.80;;;;;;5026440;28;20128;-75
2021/07/27 07:33:05;;;;;;;19.38;13.75;;;25.80;64.30;;;;;;5031791;28;20093;-74
2021/07/27 07:35:31;;;;;;;16.90;12.75;;;25.90;64.60;;;;;;5031765;28;20523;-75
2021/07/27 07:37:56;;;;;;;17.63;13.75;;;25.90;65.60;;;;;;5031947;28;20474;-75
2021/07/27 07:40:22;;;;;;;21.63;15.00;;;26.00;65.30;;;;;;5031745;28;20025;-75
2021/07/27 07:42:48;;;;;;;22.88;15.13;;;26.00;64.80;;;;;;5031564;28;20051;-74
2021/07/27 07:45:14;;;;;;;30.48;15.07;;;26.00;64.40;;;;;;5031685;28;20031;-77
2021/07/27 07:47:44;;;;;;;20.33;13.95;;;26.10;64.10;;;;;;5031567;28;20083;-75
2021/07/27 07:50:11;;;;;;;23.48;15.70;;;26.10;64.40;;;;;;5031491;28;20075;-76
2021/07/27 07:52:37;;;;;;;20.73;14.82;;;26.10;63.50;;;;;;5031881;28;20028;-76
2021/07/27 07:55:06;;;;;;;21.58;15.18;;;26.10;64.00;;;;;;5031715;28;20375;-76
2021/07/27 07:57:33;;;;;;;22.85;17.65;;;26.20;63.20;;;;;;5031396;28;20024;-76
2021/07/27 08:00:00;;;;;;;28.92;21.02;;;26.20;63.20;;;;;;5031446;28;20026;-76
2021/07/27 08:02:29;;;;;;;29.52;23.45;;;26.30;64.30;;;;;;5031410;28;20394;-75
2021/07/27 08:04:55;;;;;;;27.05;18.55;;;26.40;64.20;;;;;;5031298;28;20099;-75
2021/07/27 08:07:22;;;;;;;23.48;19.00;;;26.50;62.50;;;;;;5031135;28;20033;-75
2021/07/27 08:09:47;;;;;;;23.55;18.38;;;26.50;62.10;;;;;;5031178;28;20026;-75
2021/07/27 08:12:17;;;;;;;23.80;19.00;;;26.50;62.50;;;;;;5031578;28;20391;-75
2021/07/27 08:14:44;;;;;;;31.38;23.67;;;26.70;62.80;;;;;;5031375;28;20104;-76
2021/07/27 08:17:10;;;;;;;29.10;22.25;;;26.70;60.10;;;;;;5030197;28;20030;-76
2021/07/27 08:19:36;;;;;;;31.80;23.88;;;26.70;61.00;;;;;;5031439;28;20021;-76
2021/07/27 08:22:03;;;;;;;26.58;21.35;;;26.70;59.90;;;;;;5026968;28;20037;-76
2021/07/27 08:24:31;;;;;;;30.65;23.67;;;26.60;60.10;;;;;;5024906;28;20391;-75
2021/07/27 08:26:56;;;;;;;31.25;25.50;;;26.50;59.70;;;;;;5034131;28;20026;-75
2021/07/27 08:29:22;;;;;;;31.13;25.23;;;26.50;59.50;;;;;;5034662;28;20025;-75
2021/07/27 08:31:49;;;;;;;34.08;24.52;;;26.50;59.50;;;;;;5034436;28;20694;-74
2021/07/27 08:34:17;;;;;;;32.85;23.67;;;26.40;60.50;;;;;;5034483;28;20101;-75
2021/07/27 08:36:44;;;;;;;32.47;22.38;;;26.30;60.50;;;;;;5034139;28;20025;-75
2021/07/27 08:39:10;;;;;;;31.73;24.13;;;26.40;60.80;;;;;;5032047;28;20028;-74
2021/07/27 08:41:39;;;;;;;29.48;20.02;;;26.30;60.60;;;;;;5020925;28;20372;-74
2021/07/27 08:44:07;;;;;;;21.95;16.40;;;26.30;59.50;;;;;;5050174;28;20049;-74
2021/07/27 08:46:34;;;;;;;21.73;15.75;;;26.30;60.90;;;;;;5034198;28;20028;-75
2021/07/27 08:49:00;;;;;;;21.10;15.15;;;26.30;61.20;;;;;;5034522;28;20056;-74
2021/07/27 08:51:26;;;;;;;26.92;14.45;;;26.30;61.00;;;;;;5034691;28;20030;-74
2021/07/27 08:53:51;;;;;;;21.65;14.02;;;26.40;61.20;;;;;;5034727;28;20044;-74
2021/07/27 08:56:17;;;;;;;21.40;13.00;;;26.40;61.20;;;;;;5032714;28;20025;-74
2021/07/27 08:58:43;;;;;;;28.75;14.27;;;26.50;60.50;;;;;;5034720;28;20081;-75
2021/07/27 09:01:09;;;;;;;14.80;10.07;;;26.50;60.10;;;;;;5032246;28;20030;-74
2021/07/27 09:03:35;;;;;;;21.90;14.02;;;26.50;59.90;;;;;;5020710;28;20057;-74
2021/07/27 09:06:06;;;;;;;20.23;11.57;;;26.60;59.60;;;;;;5014487;28;20030;-74
2021/07/27 09:08:32;;;;;;;18.15;13.15;;;26.60;59.70;;;;;;5014613;28;20030;-73
2021/07/27 09:11:02;;;;;;;14.25;11.77;;;26.70;58.90;;;;;;5031709;28;20022;-75
2021/07/27 09:13:34;;;;;;;19.98;12.10;;;26.70;59.70;;;;;;5057282;28;20108;-74
2021/07/27 09:16:01;;;;;;;16.05;11.77;;;26.80;59.70;;;;;;5051209;28;20021;-76
2021/07/27 09:18:30;;;;;;;14.27;11.07;;;26.80;59.20;;;;;;5032938;28;20037;-74
2021/07/27 09:20:57;;;;;;;13.88;9.50;;;26.90;60.30;;;;;;5032194;28;20395;-75
2021/07/27 09:23:27;;;;;;;14.85;10.40;;;26.90;60.60;;;;;;5028094;28;20365;-74
2021/07/27 09:25:59;;;;;;;16.42;11.20;;;27.00;61.50;;;;;;5014023;28;20030;-74
2021/07/27 09:28:26;;;;;;;16.48;11.18;;;27.00;60.10;;;;;;5027449;28;20032;-74
2021/07/27 09:31:00;;;;;;;16.05;11.15;;;27.10;60.30;;;;;;5032726;28;20053;-74
2021/07/27 09:33:35;;;;;;;14.80;10.77;;;27.20;59.60;;;;;;5031854;28;20041;-74
2021/07/27 09:36:02;;;;;;;16.83;11.38;;;27.20;60.00;;;;;;5034265;28;20021;-74
2021/07/27 09:38:31;;;;;;;12.93;10.90;;;27.20;60.00;;;;;;5033477;28;20018;-74
2021/07/27 09:41:06;;;;;;;14.32;10.30;;;27.30;60.60;;;;;;5033308;28;20027;-75
2021/07/27 09:43:32;;;;;;;17.83;12.13;;;27.30;60.10;;;;;;5033667;28;20063;-74
2021/07/27 09:46:00;;;;;;;17.52;13.77;;;27.30;59.90;;;;;;5033757;28;20030;-74
2021/07/27 09:48:27;;;;;;;23.88;12.23;;;27.20;58.60;;;;;;5033404;28;20025;-74
2021/07/27 09:50:55;;;;;;;24.35;12.68;;;27.20;58.70;;;;;;5032034;28;20029;-74
2021/07/27 09:53:22;;;;;;;13.52;10.10;;;27.20;58.30;;;;;;5033000;28;20060;-75
2021/07/27 09:55:48;;;;;;;12.68;10.52;;;27.10;59.00;;;;;;5033218;28;20053;-73
2021/07/27 09:58:15;;;;;;;13.57;11.05;;;27.10;58.70;;;;;;5033203;28;20096;-73
2021/07/27 10:01:00;;;;;;;15.52;12.68;;;27.10;58.40;;;;;;5033077;28;20029;-73
2021/07/27 10:03:34;;;;;;;17.38;11.20;;;27.10;58.50;;;;;;5031899;28;20124;-74
2021/07/27 10:06:03;;;;;;;12.38;9.95;;;27.10;58.00;;;;;;5032802;28;20030;-74
2021/07/27 10:08:33;;;;;;;16.95;11.43;;;27.00;58.00;;;;;;5031330;28;20040;-73
2021/07/27 10:11:10;;;;;;;13.95;9.02;;;27.00;56.60;;;;;;5038903;28;20051;-74
2021/07/27 10:13:40;;;;;;;7.25;5.95;;;27.00;57.50;;;;;;5031159;28;20506;-73
2021/07/27 10:16:06;;;;;;;4.10;3.55;;;27.00;58.00;;;;;;5032230;28;20113;-73
2021/07/27 10:18:35;;;;;;;4.47;3.65;;;27.00;58.20;;;;;;5032385;28;20503;-73
2021/07/27 10:21:28;;;;;;;5.68;4.20;;;27.00;57.70;;;;;;5032383;28;20034;-72
2021/07/27 10:23:57;;;;;;;4.93;3.60;;;27.00;57.60;;;;;;5021373;28;20038;-73
2021/07/27 10:26:31;;;;;;;4.90;3.47;;;27.00;57.30;;;;;;5017341;28;20047;-72
2021/07/27 10:28:57;;;;;;;;;;;27.00;57.40;;;;;;5033233;28;20053;-72
2021/07/27 10:31:36;;;;;;;3.15;2.70;;;27.00;57.90;;;;;;5043051;28;20014;-73
2021/07/27 10:34:04;;;;;;;4.07;2.90;;;27.00;58.00;;;;;;5032700;28;20040;-73
2021/07/27 10:36:32;;;;;;;4.03;2.63;;;27.00;56.70;;;;;;5032881;28;20079;-72
2021/07/27 10:39:09;;;;;;;3.70;2.72;;;27.10;58.00;;;;;;5032280;28;20021;-73
2021/07/27 10:41:40;;;;;;;3.35;2.72;;;27.10;56.90;;;;;;5031666;28;20025;-73
2021/07/27 10:44:09;;;;;;;3.55;2.58;;;27.20;56.60;;;;;;5032005;28;20491;-73
2021/07/27 10:46:37;;;;;;;3.20;2.90;;;27.20;56.60;;;;;;5016019;28;20022;-73
2021/07/27 10:49:02;;;;;;;3.17;2.78;;;27.30;57.50;;;;;;5012393;28;20048;-73
2021/07/27 10:51:35;;;;;;;5.13;2.47;;;27.40;57.00;;;;;;5025368;28;20111;-73
2021/07/27 10:54:01;;;;;;;3.00;2.15;;;27.40;55.40;;;;;;5032749;28;20022;-73
2021/07/27 10:56:31;;;;;;;4.63;2.45;;;27.50;55.00;;;;;;5032912;28;20030;-73
2021/07/27 10:59:01;;;;;;;4.90;2.65;;;27.60;54.70;;;;;;5032647;28;20026;-73
2021/07/27 11:01:31;;;;;;;2.42;2.10;;;27.60;54.70;;;;;;5032828;28;20021;-73
2021/07/27 11:04:11;;;;;;;3.25;2.42;;;27.70;53.90;;;;;;5013271;28;20018;-73
2021/07/27 11:06:37;;;;;;;3.50;2.47;;;27.70;55.60;;;;;;5012763;28;20024;-72
2021/07/27 11:09:05;;;;;;;2.53;2.17;;;27.80;54.80;;;;;;5012658;28;20029;-73
2021/07/27 11:11:31;;;;;;;2.97;2.17;;;27.80;53.20;;;;;;5012776;28;20022;-73
2021/07/27 11:13:57;;;;;;;2.72;1.85;;;27.80;53.80;;;;;;5012643;28;20018;-74
2021/07/27 11:16:23;;;;;;;2.40;1.98;;;27.90;53.80;;;;;;5027859;28;20109;-72
2021/07/27 11:18:50;;;;;;;5.22;2.30;;;27.90;53.60;;;;;;5012775;28;20053;-73
2021/07/27 11:21:18;;;;;;;6.00;2.35;;;27.90;53.20;;;;;;5011199;28;20026;-73
2021/07/27 11:23:43;;;;;;;8.82;3.08;;;28.00;53.40;;;;;;5012473;28;20025;-73
2021/07/27 11:26:09;;;;;;;4.28;3.15;;;28.00;53.70;;;;;;5012391;28;20030;-73
2021/07/27 11:28:39;;;;;;;3.42;2.55;;;28.10;54.70;;;;;;5022854;28;20053;-73
2021/07/27 11:31:23;;;;;;;2.72;2.33;;;28.10;54.00;;;;;;5033568;28;20042;-73
2021/07/27 11:33:53;;;;;;;3.20;2.08;;;28.10;54.50;;;;;;5051898;28;20074;-73
2021/07/27 11:36:26;;;;;;;3.05;2.17;;;28.20;53.00;;;;;;5027212;28;20030;-73
2021/07/27 11:39:03;;;;;;;3.28;2.28;;;28.20;52.90;;;;;;5012131;28;20025;-74
2021/07/27 11:41:29;;;;;;;3.72;2.42;;;28.30;52.10;;;;;;5012373;28;20026;-73
2021/07/27 11:43:56;;;;;;;2.95;2.20;;;28.30;52.90;;;;;;5012263;28;20018;-73
2021/07/27 11:46:30;;;;;;;4.55;2.20;;;28.40;51.70;;;;;;5011031;28;20030;-74
2021/07/27 11:48:56;;;;;;;2.53;2.10;;;28.40;51.70;;;;;;5012235;28;20022;-73
2021/07/27 11:51:33;;;;;;;2.25;1.90;;;28.40;52.60;;;;;;5010869;28;20029;-73
2021/07/27 11:53:59;;;;;;;3.03;2.05;;;28.50;51.90;;;;;;5011132;28;20498;-74
2021/07/27 11:56:27;;;;;;;3.22;2.20;;;28.50;52.90;;;;;;5010787;28;20473;-73
2021/07/27 11:59:06;;;;;;;2.80;2.25;;;28.60;52.90;;;;;;5012101;28;20437;-74
2021/07/27 12:01:36;;;;;;;3.25;1.90;;;28.60;50.90;;;;;;5015728;28;20104;-73
2021/07/27 12:04:02;;;;;;;2.70;2.15;;;28.70;51.40;;;;;;5016059;28;20364;-73
2021/07/27 12:06:27;;;;;;;3.17;2.08;;;28.80;50.60;;;;;;5014564;28;20037;-73
2021/07/27 12:08:53;;;;;;;5.75;2.40;;;28.80;50.70;;;;;;5016077;28;20053;-73
2021/07/27 12:11:19;;;;;;;1.98;1.60;;;28.90;50.80;;;;;;5015830;28;20091;-72
2021/07/27 12:13:44;;;;;;;3.33;2.03;;;28.90;49.40;;;;;;5015931;28;20029;-74
2021/07/27 12:16:10;;;;;;;2.65;1.92;;;28.90;50.60;;;;;;5015814;28;20096;-73
2021/07/27 12:18:36;;;;;;;6.78;2.20;;;29.00;49.80;;;;;;5015768;28;20029;-73
2021/07/27 12:21:02;;;;;;;2.10;1.92;;;29.00;51.60;;;;;;5015724;28;20061;-73
2021/07/27 12:23:27;;;;;;;3.28;2.00;;;29.20;50.40;;;;;;5015510;28;20035;-74
2021/07/27 12:25:53;;;;;;;1.95;1.75;;;29.20;49.90;;;;;;5015510;28;20084;-73
2021/07/27 12:28:19;;;;;;;2.63;2.08;;;29.30;50.80;;;;;;5015499;28;20092;-73
2021/07/27 12:30:45;;;;;;;2.72;1.88;;;29.40;50.40;;;;;;5026160;28;20050;-73
2021/07/27 12:33:11;;;;;;;2.80;2.13;;;29.50;50.40;;;;;;5037848;28;20095;-73
2021/07/27 12:35:37;;;;;;;2.40;1.98;;;29.50;47.20;;;;;;5037018;28;20029;-73
2021/07/27 12:38:06;;;;;;;2.38;1.85;;;29.60;48.70;;;;;;5035083;28;20355;-73
2021/07/27 12:40:32;;;;;;;11.77;2.85;;;29.70;47.40;;;;;;5035195;28;20033;-73
2021/07/27 12:42:58;;;;;;;2.03;1.60;;;29.70;46.00;;;;;;5035119;28;20033;-73
2021/07/27 12:45:24;;;;;;;2.60;1.60;;;29.80;46.70;;;;;;5035018;28;20033;-74
2021/07/27 12:47:50;;;;;;;2.58;2.15;;;29.80;46.50;;;;;;5033792;28;20041;-73
2021/07/27 12:50:15;;;;;;;3.70;1.77;;;29.90;44.60;;;;;;5035135;28;20026;-73
2021/07/27 12:52:41;;;;;;;3.60;1.80;;;30.00;46.10;;;;;;5035007;28;20364;-73
2021/07/27 12:55:07;;;;;;;3.80;1.80;;;30.00;43.90;;;;;;5034728;28;20030;-74
2021/07/27 12:57:36;;;;;;;3.63;2.20;;;30.10;42.20;;;;;;5034683;28;20202;-73
2021/07/27 13:00:05;;;;;;;1.80;1.50;;;30.10;40.80;;;;;;5034712;28;20407;-73
2021/07/27 13:02:31;;;;;;;2.00;1.70;;;30.00;41.50;;;;;;5027194;28;20113;-73
2021/07/27 13:04:56;;;;;;;3.15;2.20;;;30.10;42.20;;;;;;5014967;28;20570;-73